sensor_id;sensor_type;location;lat;lon;timestamp;pressure;altitude;pressure_sealevel;temperature;humidity
64243;BME280;50573;51.512;5.386;2022-12-07T00:09:08;101714.44;;;3.52;100.00
64243;BME280;50573;51.512;5.386;2022-12-07T00:19:13;101703.34;;;3.31;100.00
64243;BME280;50573;51.512;5.386;2022-12-07T00:29:20;101697.66;;;3.13;100.00
64243;BME280;50573;51.512;5.386;2022-12-07T00:39:23;101688.09;;;3.16;100.00
64243;BME280;50573;51.512;5.386;2022-12-07T00:49:27;101689.84;;;3.05;100.00
64243;BME280;50573;51.512;5.386;2022-12-07T00:59:30;101692.34;;;2.94;100.00
64243;BME280;50573;51.512;5.386;2022-12-07T01:09:35;101685.28;;;2.63;100.00
64243;BME280;50573;51.512;5.386;2022-12-07T01:19:37;101685.41;;;2.51;100.00
64243;BME280;50573;51.512;5.386;2022-12-07T01:29:42;101685.50;;;2.77;100.00
64243;BME280;50573;51.512;5.386;2022-12-07T01:39:48;101688.41;;;3.11;100.00
64243;BME280;50573;51.512;5.386;2022-12-07T01:49:52;101696.72;;;3.25;100.00
64243;BME280;50573;51.512;5.386;2022-12-07T01:59:56;101685.19;;;3.24;100.00
64243;BME280;50573;51.512;5.386;2022-12-07T02:10:17;101681.16;;;3.15;100.00
64243;BME280;50573;51.512;5.386;2022-12-07T02:20:28;101679.19;;;3.12;100.00
64243;BME280;50573;51.512;5.386;2022-12-07T02:30:36;101673.63;;;3.01;100.00
64243;BME280;50573;51.512;5.386;2022-12-07T02:40:47;101677.28;;;2.90;100.00
64243;BME280;50573;51.512;5.386;2022-12-07T02:50:53;101677.34;;;2.93;100.00
64243;BME280;50573;51.512;5.386;2022-12-07T03:01:04;101676.41;;;3.05;100.00
64243;BME280;50573;51.512;5.386;2022-12-07T03:11:14;101677.94;;;3.06;100.00
64243;BME280;50573;51.512;5.386;2022-12-07T03:21:24;101677.59;;;2.84;100.00
64243;BME280;50573;51.512;5.386;2022-12-07T03:31:32;101661.59;;;2.72;100.00
64243;BME280;50573;51.512;5.386;2022-12-07T03:41:38;101675.13;;;2.76;100.00
64243;BME280;50573;51.512;5.386;2022-12-07T03:51:53;101668.72;;;2.84;100.00
64243;BME280;50573;51.512;5.386;2022-12-07T04:02:04;101670.41;;;2.92;100.00
64243;BME280;50573;51.512;5.386;2022-12-07T04:12:09;101666.03;;;3.07;100.00
64243;BME280;50573;51.512;5.386;2022-12-07T04:22:12;101664.34;;;3.21;100.00
64243;BME280;50573;51.512;5.386;2022-12-07T04:32:19;101655.72;;;3.35;100.00
64243;BME280;50573;51.512;5.386;2022-12-07T04:42:21;101661.28;;;3.45;100.00
64243;BME280;50573;51.512;5.386;2022-12-07T04:52:26;101656.09;;;3.59;100.00
64243;BME280;50573;51.512;5.386;2022-12-07T05:02:29;101635.34;;;3.63;100.00
64243;BME280;50573;51.512;5.386;2022-12-07T05:12:33;101636.13;;;3.64;100.00
64243;BME280;50573;51.512;5.386;2022-12-07T05:22:36;101637.34;;;3.66;100.00
64243;BME280;50573;51.512;5.386;2022-12-07T05:32:40;101637.66;;;3.61;100.00
64243;BME280;50573;51.512;5.386;2022-12-07T05:42:44;101637.28;;;3.37;100.00
64243;BME280;50573;51.512;5.386;2022-12-07T05:52:48;101632.97;;;3.06;100.00
64243;BME280;50573;51.512;5.386;2022-12-07T06:02:51;101633.09;;;2.68;100.00
64243;BME280;50573;51.512;5.386;2022-12-07T06:12:55;101629.56;;;2.41;100.00
64243;BME280;50573;51.512;5.386;2022-12-07T06:22:58;101636.00;;;2.18;100.00
64243;BME280;50573;51.512;5.386;2022-12-07T06:33:03;101638.25;;;2.16;100.00
64243;BME280;50573;51.512;5.386;2022-12-07T06:43:07;101645.19;;;2.36;100.00
64243;BME280;50573;51.512;5.386;2022-12-07T06:53:11;101647.13;;;2.58;100.00
64243;BME280;50573;51.512;5.386;2022-12-07T07:03:14;101644.50;;;2.61;100.00
64243;BME280;50573;51.512;5.386;2022-12-07T07:13:18;101645.22;;;2.58;100.00
64243;BME280;50573;51.512;5.386;2022-12-07T07:23:21;101645.81;;;2.71;100.00
64243;BME280;50573;51.512;5.386;2022-12-07T07:33:26;101649.81;;;2.80;100.00
64243;BME280;50573;51.512;5.386;2022-12-07T07:43:29;101654.56;;;2.87;100.00
64243;BME280;50573;51.512;5.386;2022-12-07T07:53:33;101656.34;;;2.79;100.00
64243;BME280;50573;51.512;5.386;2022-12-07T08:03:39;101654.03;;;2.78;100.00
64243;BME280;50573;51.512;5.386;2022-12-07T08:13:45;101667.16;;;2.60;100.00
64243;BME280;50573;51.512;5.386;2022-12-07T08:23:48;101674.31;;;2.53;100.00
64243;BME280;50573;51.512;5.386;2022-12-07T08:33:52;101672.34;;;2.72;100.00
64243;BME280;50573;51.512;5.386;2022-12-07T08:43:55;101692.06;;;2.99;100.00
64243;BME280;50573;51.512;5.386;2022-12-07T08:54:01;101689.25;;;3.41;100.00
64243;BME280;50573;51.512;5.386;2022-12-07T09:04:06;101675.06;;;3.70;100.00
64243;BME280;50573;51.512;5.386;2022-12-07T09:14:11;101665.41;;;3.95;100.00
64243;BME280;50573;51.512;5.386;2022-12-07T09:24:14;101664.47;;;4.13;100.00
64243;BME280;50573;51.512;5.386;2022-12-07T09:34:18;101669.28;;;3.97;100.00
64243;BME280;50573;51.512;5.386;2022-12-07T09:44:24;101673.63;;;3.76;100.00
64243;BME280;50573;51.512;5.386;2022-12-07T09:54:29;101672.47;;;3.77;100.00
64243;BME280;50573;51.512;5.386;2022-12-07T10:04:33;101663.16;;;4.00;100.00
64243;BME280;50573;51.512;5.386;2022-12-07T10:14:39;101654.84;;;4.46;100.00
64243;BME280;50573;51.512;5.386;2022-12-07T10:25:08;101654.44;;;4.84;100.00
64243;BME280;50573;51.512;5.386;2022-12-07T10:35:24;101630.94;;;4.84;100.00
64243;BME280;50573;51.512;5.386;2022-12-07T10:45:28;101626.66;;;4.80;100.00
64243;BME280;50573;51.512;5.386;2022-12-07T10:55:41;101618.09;;;5.21;100.00
64243;BME280;50573;51.512;5.386;2022-12-07T11:05:53;101604.44;;;5.61;100.00
64243;BME280;50573;51.512;5.386;2022-12-07T11:16:12;101597.66;;;5.85;99.57
64243;BME280;50573;51.512;5.386;2022-12-07T11:26:32;101586.53;;;6.15;97.90
64243;BME280;50573;51.512;5.386;2022-12-07T11:36:40;101576.53;;;6.47;97.22
64243;BME280;50573;51.512;5.386;2022-12-07T11:46:48;101574.22;;;6.66;96.43
64243;BME280;50573;51.512;5.386;2022-12-07T11:56:56;101576.19;;;6.73;95.45
64243;BME280;50573;51.512;5.386;2022-12-07T12:07:02;101554.16;;;6.50;95.72
64243;BME280;50573;51.512;5.386;2022-12-07T12:17:50;101546.38;;;6.38;95.81
64243;BME280;50573;51.512;5.386;2022-12-07T12:27:58;101531.69;;;6.63;94.65
64243;BME280;50573;51.512;5.386;2022-12-07T12:38:30;101520.50;;;6.75;93.17
64243;BME280;50573;51.512;5.386;2022-12-07T12:48:36;101518.56;;;6.55;93.76
64243;BME280;50573;51.512;5.386;2022-12-07T12:58:43;101498.84;;;6.40;92.05
64243;BME280;50573;51.512;5.386;2022-12-07T13:08:48;101489.94;;;6.26;93.23
64243;BME280;50573;51.512;5.386;2022-12-07T13:18:53;101476.00;;;6.10;93.71
64243;BME280;50573;51.512;5.386;2022-12-07T13:29:06;101487.63;;;6.28;95.33
64243;BME280;50573;51.512;5.386;2022-12-07T13:39:18;101464.41;;;6.69;94.00
64243;BME280;50573;51.512;5.386;2022-12-07T13:49:24;101456.69;;;6.64;92.87
64243;BME280;50573;51.512;5.386;2022-12-07T13:59:29;101455.16;;;6.59;92.25
64243;BME280;50573;51.512;5.386;2022-12-07T14:09:35;101448.22;;;6.48;93.14
64243;BME280;50573;51.512;5.386;2022-12-07T14:19:48;101436.59;;;6.51;93.24
64243;BME280;50573;51.512;5.386;2022-12-07T14:29:57;101420.00;;;6.28;95.39
64243;BME280;50573;51.512;5.386;2022-12-07T14:40:03;101419.63;;;6.01;95.95
64243;BME280;50573;51.512;5.386;2022-12-07T14:50:10;101412.97;;;5.74;97.50
64243;BME280;50573;51.512;5.386;2022-12-07T15:00:17;101414.13;;;5.66;97.57
64243;BME280;50573;51.512;5.386;2022-12-07T15:10:23;101397.13;;;5.55;97.36
64243;BME280;50573;51.512;5.386;2022-12-07T15:20:32;101397.13;;;5.44;97.67
64243;BME280;50573;51.512;5.386;2022-12-07T15:30:36;101410.56;;;5.30;97.90
64243;BME280;50573;51.512;5.386;2022-12-07T15:40:41;101383.91;;;5.18;97.77
64243;BME280;50573;51.512;5.386;2022-12-07T15:50:44;101390.09;;;5.22;97.69
64243;BME280;50573;51.512;5.386;2022-12-07T16:00:48;101385.41;;;5.12;98.98
64243;BME280;50573;51.512;5.386;2022-12-07T16:10:51;101377.69;;;5.00;100.00
64243;BME280;50573;51.512;5.386;2022-12-07T16:20:56;101364.50;;;4.88;100.00
64243;BME280;50573;51.512;5.386;2022-12-07T16:31:07;101366.84;;;4.86;100.00
64243;BME280;50573;51.512;5.386;2022-12-07T16:41:12;101356.41;;;4.88;100.00
64243;BME280;50573;51.512;5.386;2022-12-07T16:51:15;101357.59;;;4.91;100.00
64243;BME280;50573;51.512;5.386;2022-12-07T17:01:21;101344.09;;;4.91;99.60
64243;BME280;50573;51.512;5.386;2022-12-07T17:11:26;101334.81;;;4.88;99.89
64243;BME280;50573;51.512;5.386;2022-12-07T17:21:31;101337.13;;;4.83;100.00
64243;BME280;50573;51.512;5.386;2022-12-07T17:31:35;101324.34;;;4.73;100.00
64243;BME280;50573;51.512;5.386;2022-12-07T17:41:39;101312.00;;;4.68;100.00
64243;BME280;50573;51.512;5.386;2022-12-07T17:51:59;101312.00;;;4.68;100.00
64243;BME280;50573;51.512;5.386;2022-12-07T18:02:21;101297.34;;;4.69;100.00
64243;BME280;50573;51.512;5.386;2022-12-07T18:12:24;101289.28;;;4.73;100.00
64243;BME280;50573;51.512;5.386;2022-12-07T18:22:29;101287.34;;;4.70;100.00
64243;BME280;50573;51.512;5.386;2022-12-07T18:32:32;101283.06;;;4.62;100.00
64243;BME280;50573;51.512;5.386;2022-12-07T18:42:36;101268.75;;;4.47;100.00
64243;BME280;50573;51.512;5.386;2022-12-07T18:52:39;101257.50;;;4.31;100.00
64243;BME280;50573;51.512;5.386;2022-12-07T19:02:44;101252.44;;;4.19;100.00
64243;BME280;50573;51.512;5.386;2022-12-07T19:12:47;101260.13;;;4.17;100.00
64243;BME280;50573;51.512;5.386;2022-12-07T19:22:51;101252.38;;;4.12;100.00
64243;BME280;50573;51.512;5.386;2022-12-07T19:32:55;101246.97;;;4.05;100.00
64243;BME280;50573;51.512;5.386;2022-12-07T19:42:59;101248.13;;;4.07;100.00
64243;BME280;50573;51.512;5.386;2022-12-07T19:53:02;101247.00;;;4.12;100.00
64243;BME280;50573;51.512;5.386;2022-12-07T20:03:06;101230.81;;;4.12;100.00
64243;BME280;50573;51.512;5.386;2022-12-07T20:13:09;101228.16;;;4.19;100.00
64243;BME280;50573;51.512;5.386;2022-12-07T20:23:34;101220.88;;;4.19;100.00
64243;BME280;50573;51.512;5.386;2022-12-07T20:33:37;101221.63;;;4.23;100.00
64243;BME280;50573;51.512;5.386;2022-12-07T20:43:42;101197.78;;;4.25;100.00
64243;BME280;50573;51.512;5.386;2022-12-07T20:53:45;101200.88;;;4.28;100.00
64243;BME280;50573;51.512;5.386;2022-12-07T21:03:49;101182.38;;;4.26;100.00
64243;BME280;50573;51.512;5.386;2022-12-07T21:13:55;101176.16;;;4.18;100.00
64243;BME280;50573;51.512;5.386;2022-12-07T21:24:01;101168.44;;;4.06;100.00
64243;BME280;50573;51.512;5.386;2022-12-07T21:34:04;101156.09;;;4.09;100.00
64243;BME280;50573;51.512;5.386;2022-12-07T21:44:09;101157.66;;;4.10;100.00
64243;BME280;50573;51.512;5.386;2022-12-07T21:54:12;101151.50;;;4.09;100.00
64243;BME280;50573;51.512;5.386;2022-12-07T22:04:18;101152.28;;;4.10;100.00
64243;BME280;50573;51.512;5.386;2022-12-07T22:14:21;101142.25;;;4.10;100.00
64243;BME280;50573;51.512;5.386;2022-12-07T22:24:43;101137.59;;;4.04;100.00
64243;BME280;50573;51.512;5.386;2022-12-07T22:34:48;101126.06;;;4.03;100.00
64243;BME280;50573;51.512;5.386;2022-12-07T22:44:53;101116.81;;;4.01;100.00
64243;BME280;50573;51.512;5.386;2022-12-07T22:54:56;101082.13;;;3.96;100.00
64243;BME280;50573;51.512;5.386;2022-12-07T23:05:00;101067.91;;;3.95;100.00
64243;BME280;50573;51.512;5.386;2022-12-07T23:15:04;101067.09;;;3.88;100.00
64243;BME280;50573;51.512;5.386;2022-12-07T23:25:09;101052.81;;;3.77;100.00
64243;BME280;50573;51.512;5.386;2022-12-07T23:35:12;101049.34;;;3.69;100.00
64243;BME280;50573;51.512;5.386;2022-12-07T23:45:16;101037.38;;;3.67;100.00
64243;BME280;50573;51.512;5.386;2022-12-07T23:55:20;101043.53;;;3.64;100.00
